Virginia — WCW4062 — position and weather

sailwx.info

Track history (hours):
 
Tides and Currents Weather Stations Pressure Air Temp Water Temp Dewpoint Dewpoint Depression Visibility Wind Speed Wind Dir Waves Ship Positions

Virginia

Owner: WEEKS MARINE, INC., CRANFORD, NJ. More information available from US FCC via Universal Licensing System and Coast Guard Vessel Documentation Center.

Last reported at 2014-Nov-28 23:23 UTC. Time now 2014-Nov-29 01:22 UTC.
Position N 40°19' W 073°57'.

MMSI: 366939110.

Date/timePositionNaut miles runAvg speedWind from/ knotsBaromVisibWave heightAir tempDewpointWater temp
2014-Nov-28 23:23N 40°19' W 073°57'32 8.3
2014-Nov-28 19:33N 39°48' W 074°04'8 8.2
2014-Nov-28 18:33N 39°40' W 074°07'  
2014-Nov-26 01:17N 39°09' W 076°20'3 4.5
2014-Nov-26 00:33N 39°05' W 076°21'6 5.1
2014-Nov-25 23:28N 39°00' W 076°23'  
2014-Nov-21 23:33N 39°33' W 074°12'6 6.1
2014-Nov-21 22:32N 39°39' W 074°08'6 6.1
2014-Nov-21 21:33N 39°44' W 074°05'6 6.1
2014-Nov-21 20:33N 39°50' W 074°03'43 5.9
2014-Nov-21 13:10N 40°33' W 074°02'3 5.7
2014-Nov-21 12:33N 40°37' W 074°03'4 3.7
2014-Nov-21 11:33N 40°40' W 074°04'0 0.2
2014-Nov-21 10:33N 40°41' W 074°04'0 0.0
2014-Nov-21 09:33N 40°41' W 074°04'0 0.0
2014-Nov-21 08:33N 40°41' W 074°04'0 0.0
2014-Nov-21 07:34N 40°41' W 074°04'0 0.0
2014-Nov-21 06:33N 40°41' W 074°04'0 0.0
2014-Nov-21 05:33N 40°41' W 074°04'0 0.0
2014-Nov-21 04:33N 40°41' W 074°04'0 0.0
2014-Nov-21 03:33N 40°41' W 074°04'0 0.0
2014-Nov-21 02:33N 40°41' W 074°04'1 1.0
2014-Nov-21 01:33N 40°41' W 074°03'4 4.2
2014-Nov-21 00:33N 40°43' W 073°58'3 3.4
2014-Nov-20 23:33N 40°46' W 073°57'1 0.9
2014-Nov-20 22:33N 40°47' W 073°56'2 1.2
2014-Nov-20 21:16N 40°48' W 073°54'0 0.0
2014-Nov-20 19:32N 40°48' W 073°54'0 0.0
2014-Nov-20 18:33N 40°48' W 073°54'0 0.0
2014-Nov-20 17:24N 40°48' W 073°54'0 0.0
2014-Nov-20 16:31N 40°48' W 073°54'0 0.0
2014-Nov-20 15:06N 40°48' W 073°54'0 0.0
2014-Nov-20 14:32N 40°48' W 073°54'0 0.1
2014-Nov-20 13:12N 40°48' W 073°54'2 0.9
2014-Nov-20 11:32N 40°47' W 073°55'6 5.8
2014-Nov-20 10:33N 40°42' W 073°60'4 3.8
2014-Nov-20 09:33N 40°41' W 074°04'0 0.0
2014-Nov-20 08:33N 40°41' W 074°04'0 0.0
2014-Nov-20 07:33N 40°41' W 074°04'0 0.0
2014-Nov-20 06:33N 40°41' W 074°04'0 0.0
2014-Nov-20 05:33N 40°41' W 074°04'0 0.0
2014-Nov-20 04:33N 40°41' W 074°04'0 0.0
2014-Nov-20 03:33N 40°41' W 074°04'0 0.0
2014-Nov-20 02:33N 40°41' W 074°04'0 0.0
2014-Nov-20 01:33N 40°41' W 074°04'0 0.0
2014-Nov-20 00:33N 40°41' W 074°04'0 0.0
2014-Nov-19 23:33N 40°41' W 074°04'0 0.1
2014-Nov-19 22:33N 40°40' W 074°04'0 0.1
2014-Nov-19 21:33N 40°41' W 074°04'0 0.0
2014-Nov-19 20:33N 40°41' W 074°04'0 0.1
2014-Nov-19 19:33N 40°41' W 074°04'0 0.1
2014-Nov-19 18:33N 40°41' W 074°04'0 0.0
2014-Nov-19 17:33N 40°41' W 074°04'0 0.0
2014-Nov-19 16:33N 40°41' W 074°04'0 0.0
2014-Nov-19 15:33N 40°41' W 074°04'0 0.0
2014-Nov-19 14:33N 40°41' W 074°04'0 0.0
2014-Nov-19 13:33N 40°41' W 074°04'0 0.0
2014-Nov-19 12:33N 40°41' W 074°04'0 0.0
2014-Nov-19 11:33N 40°41' W 074°04'0 0.0
2014-Nov-19 10:33N 40°41' W 074°04'0 0.0
2014-Nov-19 09:33N 40°41' W 074°04'0 0.0
2014-Nov-19 08:33N 40°41' W 074°04'0 0.0
2014-Nov-19 07:33N 40°41' W 074°04'0 0.0
2014-Nov-19 06:33N 40°41' W 074°04'0 0.0
2014-Nov-19 05:33N 40°41' W 074°04'0 0.0
2014-Nov-19 04:33N 40°41' W 074°04'0 0.0
2014-Nov-19 03:33N 40°41' W 074°04'0 0.2
2014-Nov-19 02:33N 40°40' W 074°04'1 0.6
2014-Nov-19 01:33N 40°40' W 074°05'1 0.9
2014-Nov-19 00:33N 40°40' W 074°04'6 5.7
2014-Nov-18 23:33N 40°38' W 074°11'  
Track history (hours):
 
Tides and Currents Weather Stations Pressure Air Temp Water Temp Dewpoint Dewpoint Depression Visibility Wind Speed Wind Dir Waves Ship Positions

Virginia

Owner: WEEKS MARINE, INC., CRANFORD, NJ. More information available from US FCC via Universal Licensing System and Coast Guard Vessel Documentation Center.

Last reported at 2014-Nov-28 23:23 UTC. Time now 2014-Nov-29 01:22 UTC.
Position N 40°19' W 073°57'.

MMSI: 366939110.

Date/timePositionNaut miles runAvg speedWind from/ knotsBaromVisibWave heightAir tempDewpointWater temp
2014-Nov-28 23:23N 40°19' W 073°57'32 8.3
2014-Nov-28 19:33N 39°48' W 074°04'8 8.2
2014-Nov-28 18:33N 39°40' W 074°07'  
2014-Nov-26 01:17N 39°09' W 076°20'3 4.5
2014-Nov-26 00:33N 39°05' W 076°21'6 5.1
2014-Nov-25 23:28N 39°00' W 076°23'  
2014-Nov-21 23:33N 39°33' W 074°12'6 6.1
2014-Nov-21 22:32N 39°39' W 074°08'6 6.1
2014-Nov-21 21:33N 39°44' W 074°05'6 6.1
2014-Nov-21 20:33N 39°50' W 074°03'43 5.9
2014-Nov-21 13:10N 40°33' W 074°02'3 5.7
2014-Nov-21 12:33N 40°37' W 074°03'4 3.7
2014-Nov-21 11:33N 40°40' W 074°04'0 0.2
2014-Nov-21 10:33N 40°41' W 074°04'0 0.0
2014-Nov-21 09:33N 40°41' W 074°04'0 0.0
2014-Nov-21 08:33N 40°41' W 074°04'0 0.0
2014-Nov-21 07:34N 40°41' W 074°04'0 0.0
2014-Nov-21 06:33N 40°41' W 074°04'0 0.0
2014-Nov-21 05:33N 40°41' W 074°04'0 0.0
2014-Nov-21 04:33N 40°41' W 074°04'0 0.0
2014-Nov-21 03:33N 40°41' W 074°04'0 0.0
2014-Nov-21 02:33N 40°41' W 074°04'1 1.0
2014-Nov-21 01:33N 40°41' W 074°03'4 4.2
2014-Nov-21 00:33N 40°43' W 073°58'3 3.4
2014-Nov-20 23:33N 40°46' W 073°57'1 0.9
2014-Nov-20 22:33N 40°47' W 073°56'2 1.2
2014-Nov-20 21:16N 40°48' W 073°54'0 0.0
2014-Nov-20 19:32N 40°48' W 073°54'0 0.0
2014-Nov-20 18:33N 40°48' W 073°54'0 0.0
2014-Nov-20 17:24N 40°48' W 073°54'0 0.0
2014-Nov-20 16:31N 40°48' W 073°54'0 0.0
2014-Nov-20 15:06N 40°48' W 073°54'0 0.0
2014-Nov-20 14:32N 40°48' W 073°54'0 0.1
2014-Nov-20 13:12N 40°48' W 073°54'2 0.9
2014-Nov-20 11:32N 40°47' W 073°55'6 5.8
2014-Nov-20 10:33N 40°42' W 073°60'4 3.8
2014-Nov-20 09:33N 40°41' W 074°04'0 0.0
2014-Nov-20 08:33N 40°41' W 074°04'0 0.0
2014-Nov-20 07:33N 40°41' W 074°04'0 0.0
2014-Nov-20 06:33N 40°41' W 074°04'0 0.0
2014-Nov-20 05:33N 40°41' W 074°04'0 0.0
2014-Nov-20 04:33N 40°41' W 074°04'0 0.0
2014-Nov-20 03:33N 40°41' W 074°04'0 0.0
2014-Nov-20 02:33N 40°41' W 074°04'0 0.0
2014-Nov-20 01:33N 40°41' W 074°04'0 0.0
2014-Nov-20 00:33N 40°41' W 074°04'0 0.0
2014-Nov-19 23:33N 40°41' W 074°04'0 0.1
2014-Nov-19 22:33N 40°40' W 074°04'0 0.1
2014-Nov-19 21:33N 40°41' W 074°04'0 0.0
2014-Nov-19 20:33N 40°41' W 074°04'0 0.1
2014-Nov-19 19:33N 40°41' W 074°04'0 0.1
2014-Nov-19 18:33N 40°41' W 074°04'0 0.0
2014-Nov-19 17:33N 40°41' W 074°04'0 0.0
2014-Nov-19 16:33N 40°41' W 074°04'0 0.0
2014-Nov-19 15:33N 40°41' W 074°04'0 0.0
2014-Nov-19 14:33N 40°41' W 074°04'0 0.0
2014-Nov-19 13:33N 40°41' W 074°04'0 0.0
2014-Nov-19 12:33N 40°41' W 074°04'0 0.0
2014-Nov-19 11:33N 40°41' W 074°04'0 0.0
2014-Nov-19 10:33N 40°41' W 074°04'0 0.0
2014-Nov-19 09:33N 40°41' W 074°04'0 0.0
2014-Nov-19 08:33N 40°41' W 074°04'0 0.0
2014-Nov-19 07:33N 40°41' W 074°04'0 0.0
2014-Nov-19 06:33N 40°41' W 074°04'0 0.0
2014-Nov-19 05:33N 40°41' W 074°04'0 0.0
2014-Nov-19 04:33N 40°41' W 074°04'0 0.0
2014-Nov-19 03:33N 40°41' W 074°04'0 0.2
2014-Nov-19 02:33N 40°40' W 074°04'1 0.6
2014-Nov-19 01:33N 40°40' W 074°05'1 0.9
2014-Nov-19 00:33N 40°40' W 074°04'6 5.7
2014-Nov-18 23:33N 40°38' W 074°11'  

Dump ship's entire track history